Time;durP1;ratioP1;P1;durP2;ratioP2;P2;SDS_P1;SDS_P2;PMS_P1;PMS_P2;Temp;Humidity;BMP_temperature;BMP_pressure;BME280_temperature;BME280_humidity;BME280_pressure;Samples;Min_cycle;Max_cycle;Signal;HPM_P1;HPM_P2
2024/01/07 00:00:38;;;;;;;2.85;2.72;;;5.90;99.90;;;;;;4939030;29;20241;-56
2024/01/07 00:03:06;;;;;;;2.90;2.65;;;5.80;99.90;;;;;;4938104;29;20237;-56
2024/01/07 00:05:34;;;;;;;2.88;2.67;;;5.80;99.90;;;;;;4941718;29;20244;-57
2024/01/07 00:08:02;;;;;;;2.45;2.35;;;5.80;99.90;;;;;;4941528;29;20234;-57
2024/01/07 00:10:29;;;;;;;2.88;2.67;;;5.90;99.90;;;;;;4934163;29;20213;-58
2024/01/07 00:12:59;;;;;;;3.75;3.45;;;5.90;99.90;;;;;;4941344;29;20260;-57
2024/01/07 00:15:27;;;;;;;3.63;2.70;;;5.90;99.90;;;;;;4951696;29;20213;-56
2024/01/07 00:17:55;;;;;;;3.25;2.95;;;5.90;99.90;;;;;;4953184;29;20296;-56
2024/01/07 00:20:24;;;;;;;2.97;2.85;;;6.00;99.90;;;;;;4950142;29;20216;-56
2024/01/07 00:22:52;;;;;;;3.40;3.03;;;6.00;99.90;;;;;;4939167;29;20232;-57
2024/01/07 00:25:20;;;;;;;2.63;2.42;;;6.00;99.90;;;;;;4949560;29;20248;-58
2024/01/07 00:27:50;;;;;;;3.50;3.20;;;6.00;99.90;;;;;;4934966;29;20328;-58
2024/01/07 00:30:20;;;;;;;9.05;3.75;;;6.00;99.90;;;;;;4935216;29;20225;-57
2024/01/07 00:32:51;;;;;;;3.45;3.15;;;6.00;99.90;;;;;;4934748;29;20212;-56
2024/01/07 00:35:18;;;;;;;4.25;3.55;;;6.10;99.90;;;;;;4938165;29;20218;-56
2024/01/07 00:37:46;;;;;;;6.20;4.18;;;6.10;99.90;;;;;;4953053;29;20777;-56
2024/01/07 00:40:14;;;;;;;5.53;3.83;;;6.10;99.90;;;;;;4942722;29;20261;-57
2024/01/07 00:42:42;;;;;;;3.15;3.05;;;6.20;99.90;;;;;;4947081;28;20782;-59
2024/01/07 00:45:10;;;;;;;3.38;3.17;;;6.20;99.90;;;;;;4940344;29;20692;-58
2024/01/07 00:47:40;;;;;;;3.47;3.17;;;6.20;99.90;;;;;;4952812;29;20257;-58
2024/01/07 00:50:08;;;;;;;3.20;3.00;;;6.30;99.90;;;;;;4951187;29;20272;-57
2024/01/07 00:52:36;;;;;;;3.15;2.85;;;6.30;99.90;;;;;;4952785;29;20682;-56
2024/01/07 00:55:06;;;;;;;3.03;2.75;;;6.30;99.90;;;;;;4948230;29;20245;-56
2024/01/07 00:57:34;;;;;;;3.35;3.05;;;6.30;99.90;;;;;;4937568;29;20230;-57
2024/01/07 01:00:05;;;;;;;2.85;2.65;;;6.30;99.90;;;;;;4947395;29;20682;-57
2024/01/07 01:02:33;;;;;;;2.90;2.63;;;6.30;99.90;;;;;;4947915;28;20313;-58
2024/01/07 01:05:02;;;;;;;3.92;3.17;;;6.30;99.90;;;;;;4945719;29;20296;-56
2024/01/07 01:07:30;;;;;;;6.00;4.93;;;6.40;99.90;;;;;;4933860;29;20225;-57
2024/01/07 01:09:58;;;;;;;12.18;7.40;;;6.30;99.90;;;;;;4933255;29;20643;-56
2024/01/07 01:12:26;;;;;;;16.80;10.18;;;6.40;99.90;;;;;;4935120;29;20238;-56
2024/01/07 01:14:54;;;;;;;13.25;8.75;;;6.30;99.90;;;;;;4951582;28;20221;-56
2024/01/07 01:17:22;;;;;;;12.32;8.55;;;6.40;99.90;;;;;;4952734;29;20257;-57
2024/01/07 01:19:50;;;;;;;8.07;6.43;;;6.40;99.90;;;;;;4955384;29;20205;-57
2024/01/07 01:22:19;;;;;;;5.05;4.60;;;6.40;99.90;;;;;;4953434;29;20241;-57
2024/01/07 01:24:48;;;;;;;3.95;3.58;;;6.30;99.90;;;;;;4953074;29;20285;-56
2024/01/07 01:27:16;;;;;;;3.80;3.50;;;6.30;99.90;;;;;;4954224;29;20722;-56
2024/01/07 01:29:44;;;;;;;4.07;3.78;;;6.30;99.90;;;;;;4954059;29;20296;-57
2024/01/07 01:32:12;;;;;;;3.72;3.42;;;6.30;99.90;;;;;;4954731;29;20653;-57
2024/01/07 01:34:41;;;;;;;3.13;2.83;;;6.30;99.90;;;;;;4941499;29;20695;-57
2024/01/07 01:37:09;;;;;;;2.22;2.03;;;6.30;99.90;;;;;;4937105;29;20236;-56
2024/01/07 01:39:40;;;;;;;2.10;2.00;;;6.30;99.90;;;;;;4949245;29;20308;-56
2024/01/07 01:42:08;;;;;;;1.70;1.60;;;6.30;99.90;;;;;;4946937;29;20202;-57
2024/01/07 01:44:36;;;;;;;1.58;1.48;;;6.30;99.90;;;;;;4939373;29;20254;-56
2024/01/07 01:47:04;;;;;;;1.23;1.23;;;6.20;99.90;;;;;;4937445;29;20258;-58
2024/01/07 01:49:32;;;;;;;1.45;1.42;;;6.30;99.90;;;;;;4945435;29;20296;-58
2024/01/07 01:52:00;;;;;;;1.10;1.10;;;6.30;99.90;;;;;;4937952;29;20778;-57
2024/01/07 01:54:28;;;;;;;1.75;1.58;;;6.30;99.90;;;;;;4955011;29;20209;-57
2024/01/07 01:56:57;;;;;;;1.30;1.30;;;6.30;99.90;;;;;;4954644;29;20321;-58
2024/01/07 01:59:26;;;;;;;2.05;1.40;;;6.20;99.90;;;;;;4953673;29;20707;-56
2024/01/07 02:01:55;;;;;;;1.50;1.40;;;6.20;99.90;;;;;;4955814;29;20205;-56
2024/01/07 02:04:22;;;;;;;1.20;1.20;;;6.20;99.90;;;;;;4942593;28;20277;-57
2024/01/07 02:06:51;;;;;;;1.20;1.20;;;6.20;99.90;;;;;;4936145;29;20643;-58
2024/01/07 02:09:18;;;;;;;1.15;1.15;;;6.10;99.90;;;;;;4936185;29;20210;-57
2024/01/07 02:14:40;;;;;;;0.93;0.93;;;6.10;99.90;;;;;;5109180;27;20613;-57
2024/01/07 02:17:08;;;;;;;1.00;1.00;;;6.10;99.90;;;;;;5102954;28;20584;-57
2024/01/07 02:19:35;;;;;;;0.90;0.90;;;6.10;99.90;;;;;;5082087;28;20232;-56
2024/01/07 02:22:04;;;;;;;3.70;1.08;;;6.10;99.90;;;;;;5088745;28;20288;-57
2024/01/07 02:24:33;;;;;;;1.00;1.00;;;6.10;99.90;;;;;;5087681;28;20209;-57
2024/01/07 02:27:02;;;;;;;0.80;0.80;;;6.10;99.90;;;;;;5088341;28;20235;-58
2024/01/07 02:29:30;;;;;;;0.80;0.80;;;6.10;99.90;;;;;;5088359;28;20291;-57
2024/01/07 02:31:57;;;;;;;1.13;1.13;;;6.10;99.90;;;;;;5088570;28;20225;-57
2024/01/07 02:34:25;;;;;;;1.10;1.10;;;6.20;99.90;;;;;;5088563;28;20303;-58
2024/01/07 02:36:53;;;;;;;0.90;0.90;;;6.20;99.90;;;;;;5088605;28;20225;-57
2024/01/07 02:39:22;;;;;;;0.85;0.85;;;6.20;99.90;;;;;;5088303;28;20211;-58
2024/01/07 02:41:51;;;;;;;0.90;0.90;;;6.10;99.90;;;;;;5088087;28;20657;-56
2024/01/07 02:44:19;;;;;;;0.77;0.77;;;6.20;99.90;;;;;;5087975;28;20240;-57
2024/01/07 02:46:47;;;;;;;0.65;0.65;;;6.10;99.90;;;;;;5087591;28;20227;-57
2024/01/07 02:49:14;;;;;;;0.98;0.98;;;6.10;99.90;;;;;;5088068;28;20287;-58
2024/01/07 02:51:45;;;;;;;1.55;1.17;;;6.10;99.90;;;;;;5088101;28;20205;-57
2024/01/07 02:54:13;;;;;;;0.90;0.90;;;6.10;99.90;;;;;;5088197;28;20224;-57
2024/01/07 02:56:40;;;;;;;1.27;1.17;;;6.10;99.90;;;;;;5088666;28;20412;-58
2024/01/07 02:59:10;;;;;;;0.75;0.75;;;6.20;99.90;;;;;;5079129;28;20695;-57
2024/01/07 03:01:40;;;;;;;1.40;1.30;;;6.10;99.90;;;;;;5087865;28;20295;-58
2024/01/07 03:04:10;;;;;;;0.90;0.90;;;6.10;99.90;;;;;;5087767;28;20203;-57
2024/01/07 03:06:38;;;;;;;1.02;1.00;;;6.10;99.90;;;;;;5084333;28;20228;-57
2024/01/07 03:09:06;;;;;;;0.93;0.93;;;6.10;99.90;;;;;;5087683;28;20205;-58
2024/01/07 03:11:34;;;;;;;1.10;1.10;;;6.10;99.90;;;;;;5087379;28;20224;-58
2024/01/07 03:14:01;;;;;;;1.00;1.00;;;6.10;99.90;;;;;;5087762;28;20263;-57
2024/01/07 03:16:30;;;;;;;2.05;1.10;;;6.10;99.90;;;;;;5087529;28;20295;-57
2024/01/07 03:18:58;;;;;;;1.02;1.02;;;6.10;99.90;;;;;;5087456;28;20240;-58
2024/01/07 03:21:26;;;;;;;1.95;1.15;;;6.10;99.90;;;;;;5087463;28;20206;-58
2024/01/07 03:23:54;;;;;;;1.05;1.05;;;6.10;99.90;;;;;;5086059;28;20254;-58
2024/01/07 03:26:23;;;;;;;1.13;1.08;;;6.10;99.90;;;;;;5073692;28;20259;-58
2024/01/07 03:28:51;;;;;;;1.40;1.30;;;6.10;99.90;;;;;;5074059;28;20232;-58
2024/01/07 03:31:19;;;;;;;1.00;1.00;;;6.10;99.90;;;;;;5073682;28;20683;-58
2024/01/07 03:33:49;;;;;;;1.15;1.15;;;6.10;99.90;;;;;;5074086;28;20228;-58
2024/01/07 03:36:17;;;;;;;1.33;1.25;;;6.10;99.90;;;;;;5073759;28;20208;-58
2024/01/07 03:38:45;;;;;;;1.48;1.40;;;6.10;99.90;;;;;;5073469;28;20256;-57
2024/01/07 03:41:16;;;;;;;1.60;1.50;;;6.10;99.90;;;;;;5073255;28;20675;-58
2024/01/07 03:43:44;;;;;;;2.13;1.50;;;6.10;99.90;;;;;;5073635;28;20206;-56
2024/01/07 03:46:12;;;;;;;1.73;1.67;;;6.10;99.90;;;;;;5073258;28;20237;-57
2024/01/07 03:48:41;;;;;;;2.65;1.70;;;6.10;99.90;;;;;;5068688;28;20650;-57
2024/01/07 03:51:11;;;;;;;1.70;1.60;;;6.00;99.90;;;;;;5072980;28;20215;-57
2024/01/07 03:53:38;;;;;;;1.88;1.77;;;6.00;99.90;;;;;;5073702;28;20275;-58
2024/01/07 03:56:07;;;;;;;2.13;2.03;;;6.00;99.90;;;;;;5070501;28;20224;-58
2024/01/07 03:58:35;;;;;;;1.92;1.83;;;6.00;99.90;;;;;;5073235;28;20268;-57
2024/01/07 04:01:03;;;;;;;2.60;2.40;;;5.90;99.90;;;;;;5072365;28;20292;-58
2024/01/07 04:03:31;;;;;;;2.45;2.25;;;5.90;99.90;;;;;;5071620;28;20610;-57
2024/01/07 04:05:59;;;;;;;2.33;2.22;;;5.80;99.90;;;;;;5072523;28;20254;-57
2024/01/07 04:08:29;;;;;;;2.50;2.40;;;5.80;99.90;;;;;;5073994;28;20221;-58
2024/01/07 04:10:57;;;;;;;2.90;2.70;;;5.80;99.90;;;;;;5072910;28;20844;-56
2024/01/07 04:13:25;;;;;;;2.40;2.10;;;5.80;99.90;;;;;;5073012;28;20213;-58
2024/01/07 04:15:52;;;;;;;2.80;2.60;;;5.80;99.90;;;;;;5072944;28;20201;-57
2024/01/07 04:18:20;;;;;;;3.47;2.65;;;5.80;99.90;;;;;;5072844;28;20232;-57
2024/01/07 04:20:48;;;;;;;3.78;2.75;;;5.80;99.90;;;;;;5073142;28;20216;-58
2024/01/07 04:23:16;;;;;;;2.60;2.40;;;5.80;99.90;;;;;;5073241;28;20633;-57
2024/01/07 04:25:45;;;;;;;3.13;2.83;;;5.80;99.90;;;;;;5072585;28;20281;-58
2024/01/07 04:28:13;;;;;;;3.00;2.63;;;5.90;99.90;;;;;;5073148;28;20229;-58
2024/01/07 04:30:41;;;;;;;3.20;2.90;;;5.90;99.90;;;;;;5072452;28;20267;-58
2024/01/07 04:33:09;;;;;;;3.80;2.95;;;5.90;99.90;;;;;;5072887;28;20205;-58
2024/01/07 04:35:37;;;;;;;3.50;3.20;;;5.90;99.90;;;;;;5072012;28;20251;-58
2024/01/07 04:38:05;;;;;;;3.45;3.15;;;5.90;99.90;;;;;;5072295;28;20221;-58
2024/01/07 04:40:33;;;;;;;3.63;3.33;;;5.90;99.90;;;;;;5072220;28;20244;-59
2024/01/07 04:43:02;;;;;;;3.40;2.85;;;5.90;99.90;;;;;;5072725;28;20254;-58
2024/01/07 04:45:30;;;;;;;3.05;2.80;;;5.90;99.90;;;;;;5071864;28;20201;-58
2024/01/07 04:47:58;;;;;;;4.07;3.38;;;5.90;99.90;;;;;;5068206;28;20726;-58
2024/01/07 04:50:26;;;;;;;3.28;2.90;;;5.90;99.90;;;;;;5071943;28;20201;-58
2024/01/07 04:52:54;;;;;;;3.00;2.70;;;5.90;99.90;;;;;;5072095;28;20232;-58
2024/01/07 04:55:22;;;;;;;3.30;2.70;;;5.90;99.90;;;;;;5071943;28;20308;-58
2024/01/07 04:57:50;;;;;;;2.97;2.78;;;5.90;99.90;;;;;;5071830;28;20217;-58
2024/01/07 05:00:20;;;;;;;3.50;3.20;;;5.90;99.90;;;;;;5072147;28;20197;-58
2024/01/07 05:02:47;;;;;;;2.95;2.75;;;5.80;99.90;;;;;;5072188;28;20247;-58
2024/01/07 05:05:15;;;;;;;3.78;3.42;;;5.80;99.90;;;;;;5072209;28;20710;-58
2024/01/07 05:07:43;;;;;;;4.57;2.67;;;5.80;99.90;;;;;;5071607;28;20897;-58
2024/01/07 05:10:11;;;;;;;3.08;2.50;;;5.80;99.90;;;;;;5071937;28;20235;-58
2024/01/07 05:12:39;;;;;;;3.15;2.92;;;5.80;99.90;;;;;;5071626;28;20292;-58
2024/01/07 05:15:09;;;;;;;3.20;2.97;;;5.80;99.90;;;;;;5072166;28;20221;-58
2024/01/07 05:17:38;;;;;;;4.97;3.28;;;5.80;99.90;;;;;;5070356;28;20307;-58
2024/01/07 05:20:08;;;;;;;4.32;3.90;;;5.80;99.90;;;;;;5064301;28;20224;-59
2024/01/07 05:22:36;;;;;;;4.72;3.63;;;5.80;99.90;;;;;;5070550;28;20212;-59
2024/01/07 05:25:05;;;;;;;4.25;3.85;;;5.80;99.90;;;;;;5071530;28;20201;-59
2024/01/07 05:27:33;;;;;;;4.35;3.95;;;5.80;99.90;;;;;;5070401;28;20259;-58
2024/01/07 05:30:01;;;;;;;4.53;4.10;;;5.70;99.90;;;;;;5071749;28;20208;-58
2024/01/07 05:32:29;;;;;;;7.47;4.47;;;5.70;99.90;;;;;;5071707;28;20228;-58
2024/01/07 05:34:58;;;;;;;6.68;5.28;;;5.70;99.90;;;;;;5071724;28;20275;-58
2024/01/07 05:37:26;;;;;;;8.05;4.72;;;5.70;99.90;;;;;;5071476;28;20267;-59
2024/01/07 05:39:54;;;;;;;7.50;5.07;;;5.70;99.90;;;;;;5071675;28;20296;-59
2024/01/07 05:42:22;;;;;;;6.15;5.50;;;5.60;99.90;;;;;;5071748;28;20208;-58
2024/01/07 05:44:49;;;;;;;7.38;5.38;;;5.70;99.90;;;;;;5071615;28;20235;-59
2024/01/07 05:47:18;;;;;;;8.02;5.93;;;5.70;99.90;;;;;;5070519;28;20776;-59
2024/01/07 05:49:45;;;;;;;7.88;5.32;;;5.60;99.90;;;;;;5071028;28;20193;-58
2024/01/07 05:52:15;;;;;;;9.65;5.35;;;5.60;99.90;;;;;;5071181;28;20632;-58
2024/01/07 05:54:43;;;;;;;8.55;5.95;;;5.60;99.90;;;;;;5071073;28;20312;-59
2024/01/07 05:57:11;;;;;;;6.88;5.55;;;5.60;99.90;;;;;;5071172;28;20232;-58
2024/01/07 05:59:39;;;;;;;8.85;6.15;;;5.60;99.90;;;;;;5070919;28;20278;-59
2024/01/07 06:02:07;;;;;;;8.52;5.70;;;5.60;99.90;;;;;;5071131;28;20229;-58
2024/01/07 06:04:35;;;;;;;7.18;6.18;;;5.60;99.90;;;;;;5071258;28;20212;-58
2024/01/07 06:07:04;;;;;;;10.20;7.10;;;5.60;99.90;;;;;;5071413;28;20231;-59
2024/01/07 06:09:33;;;;;;;9.00;6.90;;;5.60;99.90;;;;;;5071115;28;20205;-58
2024/01/07 06:12:01;;;;;;;9.35;7.10;;;5.60;99.90;;;;;;5071390;28;20212;-58
2024/01/07 06:14:28;;;;;;;8.73;7.22;;;5.60;99.90;;;;;;5071329;28;20312;-59
2024/01/07 06:16:56;;;;;;;11.50;7.80;;;5.60;99.90;;;;;;5070710;28;20275;-59
2024/01/07 06:19:24;;;;;;;11.45;7.30;;;5.70;99.90;;;;;;5070890;28;20245;-58
2024/01/07 06:21:52;;;;;;;12.85;7.97;;;5.60;99.90;;;;;;5071128;28;20205;-58
2024/01/07 06:24:20;;;;;;;10.75;8.23;;;5.60;99.90;;;;;;5071276;28;20207;-59
2024/01/07 06:26:49;;;;;;;12.90;9.27;;;5.60;99.90;;;;;;5071016;28;20221;-59
2024/01/07 06:29:18;;;;;;;13.80;8.10;;;5.50;99.90;;;;;;5070852;28;20278;-58
2024/01/07 06:31:46;;;;;;;10.32;7.60;;;5.50;99.90;;;;;;5070644;28;20252;-59
2024/01/07 06:34:14;;;;;;;11.65;7.95;;;5.50;99.90;;;;;;5071304;28;20284;-58
2024/01/07 06:36:43;;;;;;;12.05;7.80;;;5.50;99.90;;;;;;5070951;28;20229;-58
2024/01/07 06:39:11;;;;;;;10.65;6.82;;;5.50;99.90;;;;;;5070901;28;20211;-58
2024/01/07 06:41:39;;;;;;;7.45;6.07;;;5.50;99.90;;;;;;5070855;28;20674;-58
2024/01/07 06:44:08;;;;;;;9.25;6.38;;;5.50;99.90;;;;;;5069317;28;20216;-58
2024/01/07 06:46:36;;;;;;;8.02;5.43;;;5.40;99.90;;;;;;5070279;28;20288;-59
2024/01/07 06:49:04;;;;;;;7.03;5.25;;;5.40;99.90;;;;;;5071799;28;20236;-58
2024/01/07 06:51:32;;;;;;;6.70;5.63;;;5.40;99.90;;;;;;5070642;28;20206;-59
2024/01/07 06:54:00;;;;;;;5.25;4.70;;;5.40;99.90;;;;;;5070919;28;20198;-59
2024/01/07 06:56:28;;;;;;;6.57;4.63;;;5.30;99.90;;;;;;5070434;28;20229;-59
2024/01/07 06:58:56;;;;;;;4.68;4.25;;;5.30;99.90;;;;;;5066594;28;20215;-59
2024/01/07 07:01:25;;;;;;;4.45;4.05;;;5.20;99.90;;;;;;5076189;28;20201;-62
2024/01/07 07:03:53;;;;;;;6.72;4.55;;;5.20;99.90;;;;;;5074574;28;20205;-61
2024/01/07 07:06:21;;;;;;;5.90;4.63;;;5.20;99.90;;;;;;5074538;28;20204;-61
2024/01/07 07:08:49;;;;;;;5.45;4.32;;;5.20;99.90;;;;;;5073659;28;20672;-62
2024/01/07 07:11:17;;;;;;;5.03;4.53;;;5.20;99.90;;;;;;5074523;28;20233;-61
2024/01/07 07:13:45;;;;;;;4.80;4.22;;;5.20;99.90;;;;;;5074276;28;20262;-62
2024/01/07 07:16:13;;;;;;;5.85;4.70;;;5.30;99.90;;;;;;5073542;28;20278;-62
2024/01/07 07:18:42;;;;;;;5.70;5.03;;;5.30;99.90;;;;;;5073677;28;20274;-63
2024/01/07 07:21:10;;;;;;;5.32;4.53;;;5.30;99.90;;;;;;5073665;28;20201;-61
2024/01/07 07:23:38;;;;;;;5.95;5.10;;;5.20;99.90;;;;;;5072147;28;20296;-63
2024/01/07 07:26:06;;;;;;;7.43;4.93;;;5.20;99.90;;;;;;5069970;28;20288;-62
2024/01/07 07:28:34;;;;;;;6.05;5.45;;;5.20;99.90;;;;;;5072322;28;20308;-63
2024/01/07 07:31:02;;;;;;;6.50;5.00;;;5.10;99.90;;;;;;5065333;28;20288;-62
2024/01/07 07:33:30;;;;;;;7.70;5.65;;;5.20;99.90;;;;;;5073784;28;20213;-62
2024/01/07 07:35:59;;;;;;;9.50;6.13;;;5.10;99.90;;;;;;5073314;28;20217;-62
2024/01/07 07:38:27;;;;;;;5.78;5.20;;;5.10;99.90;;;;;;5073204;28;20252;-62
2024/01/07 07:40:55;;;;;;;8.18;5.82;;;5.10;99.90;;;;;;5073073;28;20251;-62
2024/01/07 07:43:23;;;;;;;6.97;6.07;;;5.10;99.90;;;;;;5072314;28;20267;-62
2024/01/07 07:45:51;;;;;;;10.52;6.72;;;5.10;99.90;;;;;;5073189;28;20205;-62
2024/01/07 07:48:19;;;;;;;9.20;6.38;;;5.10;99.90;;;;;;5072722;28;20229;-62
2024/01/07 07:50:47;;;;;;;8.93;6.97;;;5.10;99.90;;;;;;5072940;28;20266;-62
2024/01/07 07:53:16;;;;;;;11.30;6.82;;;5.10;99.90;;;;;;5073725;28;20236;-62
2024/01/07 07:55:44;;;;;;;8.63;6.57;;;5.00;99.90;;;;;;5073124;28;20275;-62
2024/01/07 07:58:12;;;;;;;8.63;6.40;;;5.10;99.90;;;;;;5073566;28;20692;-62
2024/01/07 08:00:40;;;;;;;8.50;6.80;;;5.00;99.90;;;;;;5073283;28;20233;-63
2024/01/07 08:03:08;;;;;;;11.02;6.78;;;5.00;99.90;;;;;;5073257;28;20201;-63
2024/01/07 08:05:36;;;;;;;11.82;7.53;;;5.00;99.90;;;;;;5072818;28;20690;-62
2024/01/07 08:08:05;;;;;;;8.88;6.32;;;4.90;99.90;;;;;;5073117;28;20232;-62
2024/01/07 08:10:35;;;;;;;9.02;6.68;;;4.90;99.90;;;;;;5072280;28;20233;-62
2024/01/07 08:13:03;;;;;;;9.05;6.72;;;4.80;99.90;;;;;;5065864;28;20205;-62
2024/01/07 08:15:30;;;;;;;7.72;6.82;;;4.80;99.90;;;;;;5073127;28;20655;-62
2024/01/07 08:17:58;;;;;;;8.57;6.30;;;4.80;99.90;;;;;;5072351;28;20248;-62
2024/01/07 08:20:26;;;;;;;8.20;6.35;;;4.80;99.90;;;;;;5072713;28;20206;-62
2024/01/07 08:22:54;;;;;;;11.70;7.32;;;4.70;99.90;;;;;;5073096;28;20212;-62
2024/01/07 08:25:22;;;;;;;9.45;6.72;;;4.70;99.90;;;;;;5073329;28;20259;-62
2024/01/07 08:27:51;;;;;;;13.77;8.27;;;4.70;99.90;;;;;;5072174;28;20217;-62
2024/01/07 08:30:20;;;;;;;11.48;7.30;;;4.70;99.90;;;;;;5072175;28;20201;-62
2024/01/07 08:32:47;;;;;;;8.80;6.63;;;4.70;99.90;;;;;;5072668;28;20233;-62
2024/01/07 08:35:16;;;;;;;10.05;7.18;;;4.70;99.90;;;;;;5072091;28;20213;-62
2024/01/07 08:37:47;;;;;;;12.48;7.93;;;4.70;99.90;;;;;;5072424;28;20229;-62
2024/01/07 08:40:16;;;;;;;11.27;7.63;;;4.80;99.90;;;;;;5072187;28;20816;-62
2024/01/07 08:42:44;;;;;;;12.45;7.82;;;4.80;99.90;;;;;;5070356;28;20592;-62
2024/01/07 08:45:14;;;;;;;10.90;7.63;;;4.80;99.90;;;;;;5072289;28;20658;-62
2024/01/07 08:47:41;;;;;;;11.27;7.70;;;4.80;99.90;;;;;;5067858;28;20304;-62
2024/01/07 08:50:12;;;;;;;12.70;7.80;;;4.80;99.90;;;;;;5071952;28;20202;-62
2024/01/07 08:52:40;;;;;;;11.70;7.65;;;4.80;99.90;;;;;;5071929;28;20201;-63
2024/01/07 08:55:10;;;;;;;11.80;7.65;;;4.80;99.90;;;;;;5072479;28;20255;-62
2024/01/07 08:57:38;;;;;;;13.38;7.82;;;4.70;99.90;;;;;;5070758;28;20294;-63
2024/01/07 09:00:08;;;;;;;11.07;7.45;;;4.70;99.90;;;;;;5069913;28;20698;-64
2024/01/07 09:02:38;;;;;;;12.75;8.77;;;4.70;99.90;;;;;;5069131;28;20271;-61
2024/01/07 09:05:10;;;;;;;12.55;8.48;;;4.80;99.90;;;;;;5064696;28;20284;-63
2024/01/07 09:07:39;;;;;;;11.80;7.75;;;4.80;99.90;;;;;;5071807;28;20221;-63
2024/01/07 09:10:10;;;;;;;13.90;8.35;;;4.80;99.90;;;;;;5063272;28;20205;-63
2024/01/07 09:12:38;;;;;;;15.43;9.10;;;4.80;99.90;;;;;;5071559;28;20209;-63
2024/01/07 09:15:08;;;;;;;15.20;8.80;;;4.80;99.90;;;;;;5069850;28;20213;-63
2024/01/07 09:17:38;;;;;;;14.45;9.25;;;4.80;99.90;;;;;;5068772;28;20239;-63
2024/01/07 09:20:08;;;;;;;15.65;8.73;;;4.80;99.90;;;;;;5071485;28;20853;-63
2024/01/07 09:22:36;;;;;;;13.07;8.73;;;4.80;99.90;;;;;;5070372;28;20274;-63
2024/01/07 09:25:05;;;;;;;13.82;8.07;;;4.80;99.90;;;;;;5071102;28;20826;-63
2024/01/07 09:27:33;;;;;;;13.18;8.63;;;4.80;99.90;;;;;;5071117;28;20225;-63
2024/01/07 09:30:01;;;;;;;12.32;8.32;;;4.90;99.90;;;;;;5071461;28;20566;-63
2024/01/07 09:32:29;;;;;;;12.13;8.40;;;4.90;99.90;;;;;;5071313;28;20671;-63
2024/01/07 09:34:58;;;;;;;12.57;8.93;;;4.90;99.90;;;;;;5065945;28;20212;-64
2024/01/07 09:37:26;;;;;;;12.20;8.35;;;4.90;99.90;;;;;;5066543;28;20307;-63
2024/01/07 09:39:54;;;;;;;11.80;7.97;;;4.90;99.90;;;;;;5068090;28;20658;-63
2024/01/07 09:42:22;;;;;;;12.48;8.30;;;4.80;99.90;;;;;;5069834;28;20200;-65
2024/01/07 09:44:51;;;;;;;12.48;8.23;;;4.80;99.90;;;;;;5069007;28;20611;-63
2024/01/07 09:47:20;;;;;;;10.95;7.03;;;4.90;99.90;;;;;;5065593;28;20247;-63
2024/01/07 09:49:47;;;;;;;12.20;7.70;;;4.80;99.90;;;;;;5070668;28;20212;-63
2024/01/07 09:52:17;;;;;;;9.73;7.28;;;4.80;99.90;;;;;;5065416;28;20197;-64
2024/01/07 09:54:45;;;;;;;10.40;7.05;;;4.70;99.90;;;;;;5070521;28;20209;-64
2024/01/07 09:57:13;;;;;;;11.52;7.30;;;4.70;99.90;;;;;;5069585;28;20237;-63
2024/01/07 09:59:41;;;;;;;7.47;6.00;;;4.70;99.90;;;;;;5061212;28;20288;-63
2024/01/07 10:02:09;;;;;;;9.57;6.90;;;4.70;99.90;;;;;;5063278;28;20275;-63
2024/01/07 10:04:37;;;;;;;8.65;7.10;;;4.70;99.90;;;;;;5071385;28;20621;-63
2024/01/07 10:07:05;;;;;;;10.50;6.75;;;4.70;99.90;;;;;;5070867;28;20275;-65
2024/01/07 10:09:35;;;;;;;8.18;6.57;;;4.80;99.90;;;;;;5070976;28;20259;-64
2024/01/07 10:12:03;;;;;;;8.98;6.45;;;4.90;99.90;;;;;;5069965;28;20201;-63
2024/01/07 10:14:31;;;;;;;7.10;5.38;;;4.90;99.90;;;;;;5068374;28;20278;-63
2024/01/07 10:17:01;;;;;;;9.60;6.43;;;5.00;99.90;;;;;;5070111;28;20229;-63
2024/01/07 10:19:29;;;;;;;7.30;6.03;;;5.00;99.90;;;;;;5068308;28;20240;-63
2024/01/07 10:22:00;;;;;;;8.70;5.97;;;5.00;99.90;;;;;;5065972;28;20209;-63
2024/01/07 10:24:38;;;;;;;6.68;5.22;;;5.00;99.90;;;;;;5068391;28;20297;-63
2024/01/07 10:27:06;;;;;;;8.35;6.18;;;5.00;99.90;;;;;;5067243;28;20225;-63
2024/01/07 10:29:34;;;;;;;6.70;5.25;;;5.00;99.90;;;;;;5069004;28;20305;-62
2024/01/07 10:32:04;;;;;;;7.50;5.57;;;4.90;99.90;;;;;;5070916;28;20623;-63
2024/01/07 10:34:33;;;;;;;6.32;5.72;;;4.90;99.90;;;;;;5067296;28;20201;-63
2024/01/07 10:37:02;;;;;;;7.07;5.50;;;5.00;99.90;;;;;;5075084;28;20227;-63
2024/01/07 10:39:30;;;;;;;6.20;5.32;;;5.00;99.90;;;;;;5066557;28;20201;-63
2024/01/07 10:41:59;;;;;;;6.00;5.38;;;5.00;99.90;;;;;;5075114;28;20213;-63
2024/01/07 10:44:28;;;;;;;6.07;5.18;;;5.00;99.90;;;;;;5066955;28;20197;-62
2024/01/07 10:46:56;;;;;;;6.22;5.15;;;5.00;99.90;;;;;;5065539;28;20217;-62
2024/01/07 10:49:25;;;;;;;5.38;4.88;;;5.00;99.90;;;;;;5063560;28;20289;-62
2024/01/07 10:52:01;;;;;;;5.55;5.05;;;5.00;99.90;;;;;;5063042;28;20201;-62
2024/01/07 10:54:29;;;;;;;5.28;4.65;;;4.90;99.90;;;;;;5062889;28;20194;-62
2024/01/07 10:57:00;;;;;;;6.63;5.22;;;4.90;99.90;;;;;;5064234;28;20232;-62
2024/01/07 10:59:29;;;;;;;5.72;4.93;;;4.80;99.90;;;;;;5075020;28;20233;-63
2024/01/07 11:01:56;;;;;;;5.45;4.70;;;4.80;99.90;;;;;;5073209;28;20659;-63
2024/01/07 11:04:31;;;;;;;5.95;5.25;;;4.90;99.90;;;;;;5062298;28;20422;-62
2024/01/07 11:07:02;;;;;;;6.93;5.00;;;4.90;99.90;;;;;;5064709;28;20226;-63
2024/01/07 11:09:34;;;;;;;5.35;4.85;;;5.00;99.90;;;;;;5066476;28;20217;-63
2024/01/07 11:12:04;;;;;;;5.68;4.78;;;5.00;99.90;;;;;;5065948;28;20213;-62
2024/01/07 11:14:36;;;;;;;5.53;5.00;;;5.00;99.90;;;;;;5065558;28;20296;-63
2024/01/07 11:17:04;;;;;;;5.68;5.10;;;5.00;99.90;;;;;;5063469;28;20303;-63
2024/01/07 11:19:32;;;;;;;6.13;5.53;;;5.00;99.90;;;;;;5062859;28;20210;-63
2024/01/07 11:22:23;;;;;;;5.82;5.13;;;5.10;99.90;;;;;;5072405;28;20210;-63
2024/01/07 11:24:51;;;;;;;6.75;5.57;;;5.00;99.90;;;;;;5066041;28;20238;-63
2024/01/07 11:27:21;;;;;;;7.40;5.47;;;5.00;99.90;;;;;;5065473;28;20672;-62
2024/01/07 11:29:56;;;;;;;9.50;5.88;;;5.00;99.90;;;;;;5062262;28;20221;-62
2024/01/07 11:32:25;;;;;;;9.32;6.13;;;4.90;99.90;;;;;;5074024;28;20193;-63
2024/01/07 11:34:53;;;;;;;6.90;5.80;;;4.90;99.90;;;;;;5065950;28;20209;-62
2024/01/07 11:37:22;;;;;;;8.07;6.03;;;4.80;99.90;;;;;;5073919;28;20323;-63
2024/01/07 11:39:52;;;;;;;8.45;6.45;;;4.70;99.90;;;;;;5065690;28;20259;-62
2024/01/07 11:42:22;;;;;;;6.22;5.63;;;4.60;99.90;;;;;;5073839;28;20208;-62
2024/01/07 11:44:52;;;;;;;6.25;5.45;;;4.60;99.90;;;;;;5074207;28;20193;-62
2024/01/07 11:47:21;;;;;;;7.38;5.35;;;4.50;99.90;;;;;;5062086;28;20253;-62
2024/01/07 11:49:50;;;;;;;7.07;5.78;;;4.50;99.90;;;;;;5061990;28;20202;-63
2024/01/07 11:52:18;;;;;;;15.80;5.75;;;4.50;99.90;;;;;;5065785;28;20350;-63
2024/01/07 11:54:46;;;;;;;5.95;5.32;;;4.50;99.90;;;;;;5058226;28;20629;-62
2024/01/07 11:57:14;;;;;;;6.35;5.22;;;4.60;99.90;;;;;;5065170;28;20227;-63
2024/01/07 11:59:43;;;;;;;6.93;5.47;;;4.60;99.90;;;;;;5065291;28;20217;-62
2024/01/07 12:02:12;;;;;;;8.45;5.95;;;4.60;99.90;;;;;;5064729;28;20225;-63
2024/01/07 12:04:40;;;;;;;6.70;5.32;;;4.60;99.90;;;;;;5065744;28;20194;-63
2024/01/07 12:07:10;;;;;;;6.90;5.85;;;4.70;99.90;;;;;;5062440;28;20298;-63
2024/01/07 12:09:38;;;;;;;7.65;5.88;;;4.70;99.90;;;;;;5062700;28;20194;-62
2024/01/07 12:12:07;;;;;;;8.88;6.18;;;4.80;99.90;;;;;;5073377;28;20208;-62
2024/01/07 12:14:35;;;;;;;7.68;6.07;;;4.80;99.90;;;;;;5072328;28;20246;-62
2024/01/07 12:17:04;;;;;;;11.77;6.80;;;4.80;99.90;;;;;;5071106;28;20667;-62
2024/01/07 12:19:32;;;;;;;9.98;6.75;;;4.80;99.90;;;;;;5071787;28;20244;-62
2024/01/07 12:22:04;;;;;;;8.73;6.63;;;4.80;99.90;;;;;;5073235;28;20293;-62
2024/01/07 12:24:32;;;;;;;10.48;6.80;;;4.80;99.90;;;;;;5072291;28;20205;-61
2024/01/07 12:27:05;;;;;;;8.57;5.97;;;4.80;99.90;;;;;;5070786;28;20221;-63
2024/01/07 12:29:32;;;;;;;6.72;5.70;;;4.80;99.90;;;;;;5071151;28;20671;-63
2024/01/07 12:32:02;;;;;;;8.43;6.40;;;4.80;99.90;;;;;;5071016;28;20198;-63
2024/01/07 12:34:32;;;;;;;7.88;5.80;;;4.80;99.90;;;;;;5072399;28;20209;-63
2024/01/07 12:37:01;;;;;;;7.30;5.75;;;4.80;99.90;;;;;;5071976;28;20839;-63
2024/01/07 12:39:30;;;;;;;7.22;6.00;;;4.80;99.90;;;;;;5070019;28;20303;-63
2024/01/07 12:41:58;;;;;;;7.95;5.93;;;4.80;99.90;;;;;;5071230;28;20209;-63
2024/01/07 12:44:28;;;;;;;8.48;6.57;;;4.90;99.90;;;;;;5067874;28;20300;-63
2024/01/07 12:46:56;;;;;;;9.90;6.70;;;4.90;99.90;;;;;;5071550;28;20225;-63
2024/01/07 12:49:24;;;;;;;9.13;6.60;;;5.00;99.90;;;;;;5067736;28;21617;-63
2024/01/07 12:51:53;;;;;;;8.05;6.15;;;5.10;99.90;;;;;;5067857;28;20228;-63
2024/01/07 12:54:23;;;;;;;7.97;5.78;;;5.20;99.90;;;;;;5067309;28;20745;-63
2024/01/07 12:56:51;;;;;;;7.78;6.35;;;5.10;99.90;;;;;;5067414;28;20655;-63
2024/01/07 12:59:19;;;;;;;11.02;6.03;;;5.10;99.90;;;;;;5067157;28;20294;-63
2024/01/07 13:01:47;;;;;;;10.30;6.68;;;5.00;99.90;;;;;;5070579;28;20295;-65
2024/01/07 13:04:15;;;;;;;9.68;6.13;;;5.00;99.90;;;;;;5075481;28;20206;-63